Time;durP1;ratioP1;P1;durP2;ratioP2;P2;SDS_P1;SDS_P2;PMS_P1;PMS_P2;Temp;Humidity;BMP_temperature;BMP_pressure;BME280_temperature;BME280_humidity;BME280_pressure;Samples;Min_cycle;Max_cycle;Signal;HPM_P1;HPM_P2
2022/08/25 00:01:38;;;;;;;13.25;5.88;;;21.20;99.90;;;;;;4842964;29;20065;-96
2022/08/25 00:04:09;;;;;;;18.00;7.28;;;21.30;99.90;;;;;;4844930;29;20049;-94
2022/08/25 00:06:39;;;;;;;18.23;7.10;;;21.30;99.90;;;;;;4822956;29;20053;-96
2022/08/25 00:09:07;;;;;;;10.73;6.82;;;21.30;99.90;;;;;;4846004;29;20046;-96
2022/08/25 00:11:36;;;;;;;12.27;6.90;;;21.40;99.90;;;;;;4849433;29;20078;-96
2022/08/25 00:14:12;;;;;;;17.30;7.28;;;21.30;99.90;;;;;;4833177;29;20090;-95
2022/08/25 00:16:40;;;;;;;16.98;6.65;;;21.30;99.90;;;;;;4861503;29;20506;-96
2022/08/25 00:19:11;;;;;;;16.02;6.72;;;21.20;99.90;;;;;;4847369;29;20056;-96
2022/08/25 00:21:39;;;;;;;13.32;7.15;;;21.20;99.90;;;;;;4859597;29;20526;-94
2022/08/25 00:24:09;;;;;;;21.10;8.07;;;21.20;99.90;;;;;;4846616;29;20049;-96
2022/08/25 00:26:43;;;;;;;15.98;6.55;;;21.20;99.90;;;;;;4859043;29;20065;-96
2022/08/25 00:29:11;;;;;;;15.30;8.05;;;21.20;99.90;;;;;;4841426;29;20060;-96
2022/08/25 00:31:39;;;;;;;13.93;7.07;;;21.20;99.90;;;;;;4841935;29;20042;-96
2022/08/25 00:34:09;;;;;;;17.13;7.05;;;21.20;99.90;;;;;;4845944;29;20050;-96
2022/08/25 00:36:38;;;;;;;13.25;6.55;;;21.20;99.90;;;;;;4861217;29;20144;-96
2022/08/25 00:39:07;;;;;;;17.05;7.10;;;21.20;99.90;;;;;;4833899;29;20735;-96
2022/08/25 00:41:37;;;;;;;10.98;6.18;;;21.20;99.90;;;;;;4862377;29;20137;-96
2022/08/25 00:44:07;;;;;;;13.13;7.40;;;21.10;99.90;;;;;;4870617;29;20041;-96
2022/08/25 00:46:48;;;;;;;17.73;6.70;;;21.10;99.90;;;;;;4860257;29;20144;-96
2022/08/25 00:49:28;;;;;;;14.82;6.05;;;21.10;99.90;;;;;;4850314;29;20053;-96
2022/08/25 00:51:55;;;;;;;10.20;6.15;;;21.10;99.90;;;;;;4869089;29;20049;-96
2022/08/25 00:54:36;;;;;;;13.40;5.95;;;21.20;99.90;;;;;;4867902;29;20050;-96
2022/08/25 00:57:15;;;;;;;13.90;5.78;;;21.20;99.90;;;;;;4889728;24;20042;-96
2022/08/25 00:59:45;;;;;;;14.45;6.03;;;21.20;99.90;;;;;;4884916;29;20124;-96
2022/08/25 01:02:14;;;;;;;11.80;6.35;;;21.20;99.90;;;;;;4886830;29;20049;-96
2022/08/25 01:04:45;;;;;;;8.95;6.07;;;21.10;99.90;;;;;;4886661;29;20533;-96
2022/08/25 01:07:19;;;;;;;12.02;6.28;;;21.20;99.90;;;;;;4884276;29;20064;-96
2022/08/25 01:09:51;;;;;;;9.65;6.57;;;21.20;99.90;;;;;;4889735;29;20057;-96
2022/08/25 01:12:20;;;;;;;;;;;21.20;99.90;;;;;;4887662;29;20510;-96
2022/08/25 01:14:49;;;;;;;9.15;5.32;;;21.10;99.90;;;;;;4870502;29;19947;-96
2022/08/25 01:17:19;;;;;;;10.85;6.10;;;21.10;99.90;;;;;;4879627;29;20083;-96
2022/08/25 01:19:48;;;;;;;14.25;6.65;;;21.10;99.90;;;;;;4875785;29;20048;-96
2022/08/25 01:22:16;;;;;;;14.57;6.28;;;21.10;99.90;;;;;;4865148;29;20498;-96
2022/08/25 01:24:58;;;;;;;12.15;6.15;;;21.10;99.90;;;;;;4872661;29;20045;-96
2022/08/25 01:27:25;;;;;;;14.30;6.70;;;21.10;99.90;;;;;;4874997;29;20116;-96
2022/08/25 01:29:53;;;;;;;14.95;6.90;;;21.10;99.90;;;;;;4872682;29;20036;-96
2022/08/25 01:32:24;;;;;;;9.75;5.78;;;21.00;99.90;;;;;;4902018;29;20051;-96
2022/08/25 01:38:09;;;;;;;11.20;6.13;;;21.10;99.90;;;;;;5147357;23;20057;-96
2022/08/25 01:40:41;;;;;;;11.85;5.65;;;21.00;99.90;;;;;;4864562;29;20041;-96
2022/08/25 01:43:35;;;;;;;12.63;6.20;;;21.00;99.90;;;;;;4960721;24;20056;-96
2022/08/25 01:46:04;;;;;;;13.98;5.50;;;21.00;99.90;;;;;;4892315;29;20073;-96
2022/08/25 01:48:32;;;;;;;13.45;5.25;;;20.90;99.90;;;;;;4889611;29;23568;-96
2022/08/25 01:51:01;;;;;;;13.57;6.57;;;20.90;99.90;;;;;;4882943;29;20131;-96
2022/08/25 01:53:31;;;;;;;13.15;5.72;;;21.00;99.90;;;;;;4888909;29;20059;-96
2022/08/25 01:56:10;;;;;;;12.55;6.85;;;20.90;99.90;;;;;;4873301;29;20602;-96
2022/08/25 01:58:43;;;;;;;15.10;6.55;;;20.90;99.90;;;;;;4867086;29;20041;-96
2022/08/25 02:01:21;;;;;;;12.00;6.43;;;20.90;99.90;;;;;;4880211;29;20053;-94
2022/08/25 02:03:50;;;;;;;12.75;6.45;;;20.90;99.90;;;;;;4879509;29;20045;-96
2022/08/25 02:06:31;;;;;;;14.02;6.15;;;20.90;99.90;;;;;;4867984;29;20087;-96
2022/08/25 02:09:04;;;;;;;11.05;5.65;;;20.80;99.90;;;;;;4860736;29;20089;-96
2022/08/25 02:11:34;;;;;;;14.38;6.35;;;20.60;99.90;;;;;;4862772;29;20053;-96
2022/08/25 02:14:02;;;;;;;12.52;6.50;;;20.60;99.90;;;;;;4859450;29;20040;-96
2022/08/25 02:16:33;;;;;;;11.95;5.95;;;20.60;99.90;;;;;;4869904;29;20052;-96
2022/08/25 02:19:03;;;;;;;10.82;6.15;;;20.60;99.90;;;;;;4867380;29;20508;-96
2022/08/25 02:21:31;;;;;;;14.30;6.35;;;20.60;99.90;;;;;;4872995;29;20064;-96
2022/08/25 02:23:59;;;;;;;12.02;6.13;;;20.70;99.90;;;;;;4863197;29;20052;-96
2022/08/25 02:26:27;;;;;;;10.30;6.43;;;20.70;99.90;;;;;;4865788;29;20139;-96
2022/08/25 02:28:54;;;;;;;11.68;5.88;;;20.70;99.90;;;;;;4879345;29;20040;-96
2022/08/25 02:31:24;;;;;;;11.00;6.03;;;20.70;99.90;;;;;;4880367;29;20055;-96
2022/08/25 02:33:58;;;;;;;11.32;6.10;;;20.70;99.90;;;;;;4867626;29;20052;-96
2022/08/25 02:36:25;;;;;;;10.30;5.47;;;20.70;99.90;;;;;;4874236;29;20064;-96
2022/08/25 02:38:53;;;;;;;17.42;6.15;;;20.70;99.90;;;;;;4866551;29;20053;-96
2022/08/25 02:41:24;;;;;;;10.10;5.63;;;20.70;99.90;;;;;;4874637;29;20521;-96
2022/08/25 02:43:59;;;;;;;10.48;5.75;;;20.80;99.90;;;;;;4893693;29;20472;-96
2022/08/25 02:46:26;;;;;;;12.38;6.10;;;20.70;99.90;;;;;;4866400;29;20079;-96
2022/08/25 02:48:54;;;;;;;9.80;5.90;;;20.70;99.90;;;;;;4860621;29;20068;-96
2022/08/25 02:51:24;;;;;;;14.00;6.15;;;20.70;99.90;;;;;;4868273;29;20052;-96
2022/08/25 02:53:51;;;;;;;11.00;5.70;;;20.60;99.90;;;;;;4865029;29;20040;-96
2022/08/25 02:56:19;;;;;;;10.32;6.05;;;20.60;99.90;;;;;;4864596;29;20091;-96
2022/08/25 02:58:47;;;;;;;13.40;6.88;;;20.50;99.90;;;;;;4876928;29;20057;-96
2022/08/25 03:01:15;;;;;;;12.82;5.97;;;20.40;99.90;;;;;;4877761;29;20036;-96
2022/08/25 03:03:45;;;;;;;15.75;6.35;;;20.50;99.90;;;;;;4879258;29;20498;-96
2022/08/25 03:06:16;;;;;;;13.88;6.22;;;20.40;99.90;;;;;;4880528;29;20060;-95
2022/08/25 03:08:44;;;;;;;12.40;5.93;;;20.30;99.90;;;;;;4865144;29;20116;-96
2022/08/25 03:11:12;;;;;;;14.27;6.35;;;20.30;99.90;;;;;;4870380;29;20127;-96
2022/08/25 03:13:39;;;;;;;11.88;6.25;;;20.40;99.90;;;;;;4877282;29;20040;-96
2022/08/25 03:16:09;;;;;;;11.40;5.70;;;20.40;99.90;;;;;;4860753;29;20136;-96
2022/08/25 03:18:40;;;;;;;13.20;6.18;;;20.40;99.90;;;;;;4860433;29;20052;-96
2022/08/25 03:21:10;;;;;;;13.88;6.47;;;20.40;99.90;;;;;;4858906;29;20097;-96
2022/08/25 03:23:40;;;;;;;11.77;6.32;;;20.30;99.90;;;;;;4863615;29;20048;-96
2022/08/25 03:28:57;;;;;;;12.30;5.90;;;20.40;99.90;;;;;;4890516;29;20037;-96
2022/08/25 03:31:26;;;;;;;11.35;5.72;;;20.50;99.90;;;;;;4869005;29;20056;-96
2022/08/25 03:33:54;;;;;;;12.40;6.68;;;20.50;99.90;;;;;;4865873;29;20390;-95
2022/08/25 03:36:22;;;;;;;10.82;6.30;;;20.40;99.90;;;;;;4883436;29;20047;-94
2022/08/25 03:38:49;;;;;;;15.57;6.22;;;20.30;99.90;;;;;;4858151;29;20086;-96
2022/08/25 03:41:23;;;;;;;13.65;6.35;;;20.30;99.90;;;;;;4864350;29;20168;-96
2022/08/25 03:43:54;;;;;;;11.70;5.65;;;20.30;99.90;;;;;;4871607;29;20071;-95
2022/08/25 03:46:27;;;;;;;13.02;5.75;;;20.30;99.90;;;;;;4866518;29;20045;-96
2022/08/25 03:48:56;;;;;;;13.30;6.18;;;20.30;99.90;;;;;;4878519;29;20055;-96
2022/08/25 03:51:39;;;;;;;10.80;6.30;;;20.40;99.90;;;;;;4869095;29;20613;-96
2022/08/25 03:54:08;;;;;;;11.43;5.35;;;20.30;99.90;;;;;;4869552;29;20052;-96
2022/08/25 03:56:35;;;;;;;12.90;6.22;;;20.30;99.90;;;;;;4873847;29;20075;-96
2022/08/25 03:59:03;;;;;;;12.50;6.15;;;20.40;99.90;;;;;;4874323;29;20044;-96
2022/08/25 04:01:31;;;;;;;16.60;6.28;;;20.40;99.90;;;;;;4870713;29;20048;-96
2022/08/25 04:03:58;;;;;;;13.98;6.13;;;20.40;99.90;;;;;;4878791;29;20100;-96
2022/08/25 04:06:29;;;;;;;11.70;6.45;;;20.30;99.90;;;;;;4884385;29;20509;-96
2022/08/25 04:08:57;;;;;;;16.25;5.95;;;20.40;99.90;;;;;;4880065;29;20506;-96
2022/08/25 04:11:26;;;;;;;12.68;5.53;;;20.40;99.90;;;;;;4887852;29;20148;-95
2022/08/25 04:13:56;;;;;;;13.40;5.88;;;20.40;99.90;;;;;;4885514;29;20049;-96
2022/08/25 04:16:27;;;;;;;11.68;6.03;;;20.40;99.90;;;;;;4876380;29;20565;-96
2022/08/25 04:18:56;;;;;;;10.45;6.30;;;20.50;99.90;;;;;;4891986;29;20049;-96
2022/08/25 04:21:25;;;;;;;10.95;6.40;;;20.50;99.90;;;;;;4878221;29;20055;-96
2022/08/25 04:23:55;;;;;;;11.48;5.60;;;20.40;99.90;;;;;;4900069;29;20064;-96
2022/08/25 04:26:29;;;;;;;13.20;5.93;;;20.50;99.90;;;;;;4876337;29;20060;-96
2022/08/25 04:28:59;;;;;;;13.00;6.95;;;20.50;99.90;;;;;;4871465;29;20120;-96
2022/08/25 04:31:27;;;;;;;13.60;6.22;;;20.60;99.90;;;;;;4873386;29;20072;-96
2022/08/25 04:33:55;;;;;;;13.32;6.45;;;20.60;99.90;;;;;;4869267;29;20109;-95
2022/08/25 04:36:23;;;;;;;11.73;6.15;;;20.50;99.90;;;;;;4870307;29;20057;-96
2022/08/25 04:38:51;;;;;;;11.75;5.93;;;20.40;99.90;;;;;;4869165;29;20069;-96
2022/08/25 04:41:22;;;;;;;14.52;7.20;;;20.40;99.90;;;;;;4885576;29;20053;-93
2022/08/25 04:43:50;;;;;;;11.95;6.90;;;20.40;99.90;;;;;;4867469;29;20132;-94
2022/08/25 04:46:24;;;;;;;15.02;6.95;;;20.40;99.90;;;;;;4881294;29;20063;-90
2022/08/25 04:48:54;;;;;;;15.73;6.85;;;20.40;99.90;;;;;;4890336;29;20053;-96
2022/08/25 04:51:27;;;;;;;13.10;6.85;;;20.40;99.90;;;;;;4881894;29;20136;-94
2022/08/25 04:53:57;;;;;;;;;;;20.50;99.90;;;;;;4865197;29;20028;-96
2022/08/25 04:56:24;;;;;;;14.25;6.68;;;20.50;99.90;;;;;;4867157;29;19927;-96
2022/08/25 04:58:54;;;;;;;10.68;5.88;;;20.60;99.90;;;;;;4869275;29;20107;-95
2022/08/25 05:01:24;;;;;;;9.57;5.88;;;20.70;99.90;;;;;;4883307;29;20127;-96
2022/08/25 05:03:55;;;;;;;11.18;6.20;;;20.70;99.90;;;;;;4866691;29;20072;-91
2022/08/25 05:06:23;;;;;;;12.13;6.80;;;20.80;99.90;;;;;;4876763;29;20057;-96
2022/08/25 05:08:51;;;;;;;10.48;6.18;;;20.80;99.90;;;;;;4879372;29;20049;-92
2022/08/25 05:11:20;;;;;;;14.30;6.35;;;20.80;99.90;;;;;;4880820;29;20056;-93
2022/08/25 05:13:51;;;;;;;14.63;6.05;;;20.90;99.90;;;;;;4867864;29;20049;-93
2022/08/25 05:16:20;;;;;;;16.70;6.30;;;20.90;99.90;;;;;;4880757;29;20056;-96
2022/08/25 05:18:50;;;;;;;15.13;5.82;;;20.90;99.90;;;;;;4860689;29;20092;-95
2022/08/25 05:21:22;;;;;;;10.60;5.90;;;21.00;99.90;;;;;;4876338;29;20048;-91
2022/08/25 05:23:53;;;;;;;10.00;5.80;;;21.10;99.90;;;;;;4878410;29;20041;-94
2022/08/25 05:26:22;;;;;;;14.05;7.07;;;21.10;99.90;;;;;;4864660;29;20052;-92
2022/08/25 05:28:52;;;;;;;13.27;5.72;;;21.10;99.90;;;;;;4882251;29;20406;-90
2022/08/25 05:31:21;;;;;;;14.63;5.93;;;21.10;99.90;;;;;;4862213;29;20055;-95
2022/08/25 05:33:51;;;;;;;14.73;5.47;;;21.20;99.90;;;;;;4868147;29;20096;-91
2022/08/25 05:36:20;;;;;;;13.30;5.55;;;21.20;99.90;;;;;;4865753;29;20159;-91
2022/08/25 05:38:48;;;;;;;9.23;5.32;;;21.30;99.90;;;;;;4859781;29;20060;-94
2022/08/25 05:41:24;;;;;;;7.70;4.75;;;21.40;99.90;;;;;;4863590;29;20065;-90
2022/08/25 05:43:51;;;;;;;11.20;5.75;;;21.40;99.90;;;;;;4879375;29;20045;-95
2022/08/25 05:46:20;;;;;;;14.20;6.15;;;21.50;99.90;;;;;;4852343;29;20052;-94
2022/08/25 05:48:48;;;;;;;10.52;5.10;;;21.60;99.90;;;;;;4865766;29;20059;-96
2022/08/25 05:51:16;;;;;;;11.07;5.53;;;21.70;99.90;;;;;;4881264;29;20078;-94
2022/08/25 05:53:47;;;;;;;9.25;5.10;;;21.70;99.90;;;;;;4878002;29;20048;-95
2022/08/25 05:56:15;;;;;;;9.15;4.57;;;21.80;99.90;;;;;;4860098;29;20139;-94
2022/08/25 05:58:43;;;;;;;13.00;5.10;;;21.90;99.90;;;;;;4858146;29;20056;-95
2022/08/25 06:04:12;;;;;;;10.55;5.40;;;22.10;99.90;;;;;;4876699;29;20390;-94
2022/08/25 06:06:40;;;;;;;9.20;4.80;;;22.20;99.90;;;;;;4865461;29;20049;-96
2022/08/25 06:09:09;;;;;;;10.00;5.28;;;22.30;99.90;;;;;;4867633;29;20052;-95
2022/08/25 06:11:38;;;;;;;11.18;4.70;;;22.50;99.90;;;;;;4864353;29;20053;-94
2022/08/25 06:14:08;;;;;;;10.50;4.82;;;22.60;99.90;;;;;;4865020;29;20053;-94
2022/08/25 06:16:37;;;;;;;9.80;4.40;;;22.70;99.90;;;;;;4860222;29;20507;-96
2022/08/25 06:19:07;;;;;;;12.63;5.00;;;22.90;99.90;;;;;;4864090;29;20056;-93
2022/08/25 06:21:37;;;;;;;12.98;5.68;;;23.00;99.90;;;;;;4882019;29;20049;-95
2022/08/25 06:24:06;;;;;;;12.65;4.93;;;23.10;99.90;;;;;;4860074;29;20101;-91
2022/08/25 06:26:42;;;;;;;14.45;5.45;;;23.20;99.90;;;;;;4863722;29;20056;-93
2022/08/25 06:29:12;;;;;;;12.75;5.18;;;23.40;99.90;;;;;;4862747;29;20121;-92
2022/08/25 06:31:41;;;;;;;11.13;5.25;;;23.50;99.90;;;;;;4877448;29;20052;-92
2022/08/25 06:34:09;;;;;;;10.75;5.22;;;23.60;99.90;;;;;;4860528;29;20041;-95
2022/08/25 06:36:36;;;;;;;11.05;4.68;;;23.60;99.90;;;;;;4866166;29;20506;-95
2022/08/25 06:39:04;;;;;;;11.63;5.10;;;23.70;99.90;;;;;;4874409;29;20775;-92
2022/08/25 06:41:31;;;;;;;13.32;4.75;;;23.80;99.90;;;;;;4856686;29;20089;-94
2022/08/25 06:44:04;;;;;;;13.57;4.70;;;23.90;99.90;;;;;;4864559;29;20055;-94
2022/08/25 06:46:32;;;;;;;16.77;5.97;;;24.10;99.90;;;;;;4856746;29;20056;-92
2022/08/25 06:49:04;;;;;;;8.10;4.68;;;24.10;99.90;;;;;;4856368;29;20045;-96
2022/08/25 06:51:34;;;;;;;9.90;5.00;;;24.20;99.90;;;;;;4857943;29;20051;-90
2022/08/25 06:54:04;;;;;;;10.25;4.60;;;24.30;99.90;;;;;;4861613;29;20127;-95
2022/08/25 06:56:32;;;;;;;12.27;4.55;;;24.30;99.90;;;;;;4878016;29;20072;-94
2022/08/25 06:59:01;;;;;;;11.35;4.28;;;24.50;99.90;;;;;;4862292;29;20045;-93
2022/08/25 07:01:30;;;;;;;12.85;5.03;;;24.50;99.90;;;;;;4864348;29;20044;-91
2022/08/25 07:04:00;;;;;;;13.63;3.85;;;24.60;99.90;;;;;;4879661;29;20097;-91
2022/08/25 07:06:34;;;;;;;6.65;3.40;;;24.70;99.90;;;;;;4877223;29;20100;-92
2022/08/25 07:09:05;;;;;;;10.52;3.78;;;24.80;99.90;;;;;;4865782;29;20511;-93
2022/08/25 07:11:33;;;;;;;7.07;3.58;;;24.80;99.90;;;;;;4863003;29;20141;-93
2022/08/25 07:14:02;;;;;;;9.35;3.90;;;25.00;99.90;;;;;;4873458;29;20056;-92
2022/08/25 07:16:31;;;;;;;8.57;3.30;;;25.00;99.90;;;;;;4859592;29;20064;-93
2022/08/25 07:18:59;;;;;;;9.18;4.13;;;25.10;99.90;;;;;;4871211;29;20053;-92
2022/08/25 07:21:29;;;;;;;5.50;3.35;;;25.20;99.90;;;;;;4858466;29;20073;-91
2022/08/25 07:24:02;;;;;;;8.25;3.65;;;25.30;99.90;;;;;;4866920;29;20049;-91
2022/08/25 07:26:33;;;;;;;11.20;4.25;;;25.30;99.90;;;;;;4881558;29;20044;-93
2022/08/25 07:29:13;;;;;;;8.38;3.58;;;25.30;99.90;;;;;;4869751;29;20444;-91
2022/08/25 07:31:41;;;;;;;7.60;3.80;;;25.30;99.90;;;;;;4861757;29;20052;-90
2022/08/25 07:36:56;;;;;;;7.63;2.90;;;25.50;99.90;;;;;;4894250;29;20081;-89
2022/08/25 07:39:25;;;;;;;5.13;2.45;;;25.60;99.90;;;;;;4869217;29;20049;-89
2022/08/25 07:41:55;;;;;;;7.20;2.95;;;25.70;99.20;;;;;;4871977;29;20150;-91
2022/08/25 07:44:23;;;;;;;10.48;2.97;;;25.80;99.90;;;;;;4862060;29;20060;-90
2022/08/25 07:46:54;;;;;;;7.05;2.72;;;25.90;99.40;;;;;;4883712;29;20080;-90
2022/08/25 07:49:24;;;;;;;5.85;3.45;;;25.90;97.90;;;;;;4868370;29;20410;-92
2022/08/25 07:51:53;;;;;;;8.23;3.00;;;26.00;97.90;;;;;;4877006;29;20045;-90
2022/08/25 07:54:34;;;;;;;11.20;2.67;;;26.10;97.60;;;;;;4867792;29;20052;-91
2022/08/25 07:57:06;;;;;;;7.00;3.20;;;26.10;96.90;;;;;;4872875;29;20056;-91
2022/08/25 07:59:37;;;;;;;11.00;2.95;;;26.10;97.10;;;;;;4886569;29;20295;-91
2022/08/25 08:02:11;;;;;;;;;;;26.20;97.50;;;;;;4867528;29;20059;-90
2022/08/25 08:04:50;;;;;;;6.57;2.85;;;26.20;97.40;;;;;;4872428;29;20696;-92
2022/08/25 08:07:20;;;;;;;7.47;2.42;;;26.30;96.30;;;;;;4870199;29;20502;-90
2022/08/25 08:09:49;;;;;;;5.00;2.60;;;26.30;95.30;;;;;;4870294;29;20501;-90
2022/08/25 08:12:39;;;;;;;5.80;2.70;;;26.40;94.70;;;;;;4885425;29;20051;-90
2022/08/25 08:15:08;;;;;;;6.15;2.28;;;26.50;95.70;;;;;;4871462;29;20112;-89
2022/08/25 08:17:37;;;;;;;10.02;2.28;;;26.60;95.50;;;;;;4868658;29;20101;-90
2022/08/25 08:20:07;;;;;;;8.30;2.92;;;26.60;94.20;;;;;;4886034;29;20045;-88
2022/08/25 08:22:37;;;;;;;6.53;3.03;;;26.70;94.10;;;;;;4866732;29;20532;-92
2022/08/25 08:25:07;;;;;;;7.68;3.15;;;26.70;92.80;;;;;;4870741;29;20518;-91
2022/08/25 08:27:41;;;;;;;7.32;2.50;;;26.60;92.50;;;;;;4872489;29;20052;-89
2022/08/25 08:30:10;;;;;;;6.28;2.30;;;26.60;93.50;;;;;;4880977;29;20037;-90
2022/08/25 08:32:37;;;;;;;8.35;2.80;;;26.70;94.30;;;;;;4884601;29;20104;-91
2022/08/25 08:35:24;;;;;;;7.03;2.30;;;26.80;95.20;;;;;;4886761;29;20123;-91
2022/08/25 08:37:52;;;;;;;6.70;2.67;;;26.90;94.10;;;;;;4865781;29;20044;-88
2022/08/25 08:40:20;;;;;;;6.82;2.30;;;27.00;94.00;;;;;;4864205;29;20048;-90
2022/08/25 08:43:16;;;;;;;5.82;2.15;;;27.10;93.30;;;;;;4864231;29;20505;-88
2022/08/25 08:45:50;;;;;;;5.18;2.10;;;27.10;91.80;;;;;;4878307;29;20044;-90
2022/08/25 08:48:59;;;;;;;7.18;2.25;;;27.20;92.40;;;;;;4880672;29;20060;-92
2022/08/25 08:51:36;;;;;;;9.18;2.65;;;27.30;92.10;;;;;;4867340;29;20053;-90
2022/08/25 08:54:13;;;;;;;6.68;2.53;;;27.10;90.00;;;;;;4868421;29;20475;-89
2022/08/25 08:56:47;;;;;;;3.20;2.10;;;26.90;90.70;;;;;;4866574;29;20045;-90
2022/08/25 08:59:26;;;;;;;9.02;2.60;;;26.90;91.40;;;;;;4884077;29;20049;-90
2022/08/25 09:02:04;;;;;;;8.75;2.58;;;26.80;92.10;;;;;;4879697;29;20052;-89
2022/08/25 09:04:43;;;;;;;7.60;2.17;;;26.90;92.50;;;;;;4860471;29;20048;-89
2022/08/25 09:07:18;;;;;;;5.30;2.85;;;27.00;91.50;;;;;;4866542;29;20045;-89
2022/08/25 09:09:47;;;;;;;7.93;2.58;;;27.00;93.50;;;;;;4882479;29;20147;-89
2022/08/25 09:12:40;;;;;;;5.70;2.05;;;27.00;92.00;;;;;;4867897;29;20506;-89
2022/08/25 09:16:53;;;;;;;6.10;1.85;;;27.00;89.90;;;;;;4862688;29;20049;-89
2022/08/25 09:18:46;;;;;;;6.13;2.50;;;27.00;88.70;;;;;;4879255;29;20059;-88
2022/08/25 09:21:32;;;;;;;5.05;2.50;;;27.00;89.10;;;;;;4843939;29;20087;-87
2022/08/25 09:24:03;;;;;;;8.45;2.88;;;27.00;89.90;;;;;;4875927;29;20165;-87
2022/08/25 09:26:43;;;;;;;9.32;3.40;;;26.90;90.40;;;;;;4866119;29;20044;-86
2022/08/25 09:29:19;;;;;;;7.85;2.20;;;26.80;90.00;;;;;;4881250;29;20048;-88
2022/08/25 09:31:47;;;;;;;6.80;2.25;;;26.90;88.80;;;;;;4894347;29;20045;-86
2022/08/25 09:34:21;;;;;;;6.97;1.90;;;26.90;89.30;;;;;;4884499;29;20056;-86
2022/08/25 09:36:51;;;;;;;7.30;2.17;;;26.90;87.20;;;;;;4879101;29;20591;-86
2022/08/25 09:39:19;;;;;;;7.20;2.08;;;27.00;87.10;;;;;;4881192;29;20878;-88
2022/08/25 09:41:56;;;;;;;5.72;2.30;;;27.10;87.00;;;;;;4879430;29;20434;-86
2022/08/25 09:44:31;;;;;;;3.95;2.22;;;27.10;87.20;;;;;;4865731;29;20083;-86
2022/08/25 09:47:13;;;;;;;6.57;2.50;;;27.20;85.90;;;;;;4875261;29;20136;-89
2022/08/25 09:49:42;;;;;;;;;;;27.30;86.20;;;;;;4866655;29;20067;-87
2022/08/25 09:52:27;;;;;;;7.22;2.70;;;27.30;86.80;;;;;;4864950;29;19977;-86
2022/08/25 09:54:56;;;;;;;7.93;2.47;;;27.30;86.40;;;;;;4883569;29;20616;-87
2022/08/25 09:57:48;;;;;;;7.97;2.58;;;27.30;86.50;;;;;;4866521;29;20482;-87
2022/08/25 10:00:21;;;;;;;3.80;2.42;;;27.40;90.00;;;;;;4881329;29;20049;-87
2022/08/25 10:03:07;;;;;;;6.45;2.08;;;27.40;88.10;;;;;;4855799;29;20056;-87
2022/08/25 10:05:46;;;;;;;4.70;2.00;;;27.40;85.10;;;;;;4866808;29;20045;-86
2022/08/25 10:08:43;;;;;;;6.05;1.90;;;27.50;86.90;;;;;;4862427;29;20052;-88
2022/08/25 10:11:27;;;;;;;8.30;3.13;;;27.50;84.60;;;;;;4867568;29;20490;-87
2022/08/25 10:14:24;;;;;;;6.90;2.50;;;27.50;86.50;;;;;;4863156;29;20383;-86
2022/08/25 10:16:53;;;;;;;6.28;2.00;;;27.60;87.70;;;;;;4839166;29;20054;-88
2022/08/25 10:19:20;;;;;;;7.00;2.67;;;27.40;84.80;;;;;;4864012;29;20052;-87
2022/08/25 10:22:06;;;;;;;6.28;2.20;;;27.50;83.50;;;;;;4866149;29;20063;-88
2022/08/25 10:24:34;;;;;;;4.68;2.15;;;27.60;83.40;;;;;;4864329;29;20048;-86
2022/08/25 10:27:05;;;;;;;5.60;3.25;;;27.60;83.40;;;;;;4861052;29;20037;-86
2022/08/25 10:30:03;;;;;;;6.18;2.38;;;27.80;82.90;;;;;;4865500;29;20056;-87
2022/08/25 10:32:31;;;;;;;10.52;3.13;;;27.90;83.00;;;;;;4876169;29;20749;-85
2022/08/25 10:35:16;;;;;;;6.45;2.30;;;27.80;84.40;;;;;;4876866;29;20101;-87
2022/08/25 10:38:03;;;;;;;7.05;2.13;;;27.70;85.20;;;;;;4859580;29;20052;-86
2022/08/25 10:40:44;;;;;;;5.18;2.10;;;27.80;85.90;;;;;;4862074;29;20593;-85
2022/08/25 10:43:34;;;;;;;4.10;2.17;;;27.80;82.10;;;;;;4851955;29;20071;-86
2022/08/25 10:46:24;;;;;;;5.57;2.20;;;27.60;84.10;;;;;;4861632;29;20509;-87
2022/08/25 10:49:00;;;;;;;4.10;1.98;;;27.70;84.70;;;;;;4859675;29;20083;-86
2022/08/25 10:51:32;;;;;;;2.70;1.75;;;27.90;83.80;;;;;;4863826;29;21762;-87
2022/08/25 10:54:18;;;;;;;5.22;1.80;;;27.90;82.10;;;;;;4862051;29;20057;-86
2022/08/25 10:57:03;;;;;;;5.80;1.95;;;28.00;80.60;;;;;;4859053;29;20048;-86
2022/08/25 10:59:55;;;;;;;6.05;1.75;;;28.00;77.60;;;;;;4860036;29;20075;-87
2022/08/25 11:02:51;;;;;;;7.00;1.98;;;28.00;80.60;;;;;;4860397;29;20502;-86
2022/08/25 11:05:27;;;;;;;4.57;1.67;;;28.10;76.40;;;;;;4863248;29;20151;-90
2022/08/25 11:08:06;;;;;;;6.82;1.80;;;28.20;78.50;;;;;;4879740;29;20056;-86
2022/08/25 11:10:41;;;;;;;5.90;2.17;;;28.20;77.70;;;;;;4860348;29;20045;-86
2022/08/25 11:13:37;;;;;;;4.88;2.15;;;28.20;78.60;;;;;;4860180;29;20137;-86
2022/08/25 11:16:17;;;;;;;7.82;2.20;;;28.30;78.60;;;;;;4856127;29;20057;-86
2022/08/25 11:19:05;;;;;;;6.00;1.92;;;28.60;78.40;;;;;;4876806;29;20128;-86
2022/08/25 11:21:47;;;;;;;7.70;2.67;;;28.50;77.30;;;;;;4854563;29;20068;-87
2022/08/25 11:24:30;;;;;;;6.85;2.47;;;28.50;75.80;;;;;;4861928;29;20053;-85
2022/08/25 11:27:05;;;;;;;5.15;1.83;;;28.50;75.80;;;;;;4866143;29;20409;-86
2022/08/25 11:29:35;;;;;;;8.30;2.78;;;28.50;75.40;;;;;;4859931;29;20565;-86
2022/08/25 11:32:05;;;;;;;12.70;2.53;;;28.50;75.90;;;;;;4857465;29;20047;-86
2022/08/25 11:34:36;;;;;;;5.30;2.65;;;28.50;75.70;;;;;;4863165;29;20052;-86
2022/08/25 11:37:27;;;;;;;6.85;2.03;;;28.40;76.20;;;;;;4861325;29;20049;-86
2022/08/25 11:40:13;;;;;;;6.72;2.35;;;28.30;77.90;;;;;;4862838;29;20123;-88
2022/08/25 11:42:49;;;;;;;7.47;2.63;;;28.30;79.70;;;;;;4877280;29;20056;-86
2022/08/25 11:45:25;;;;;;;6.55;2.55;;;28.30;76.80;;;;;;4874710;29;20064;-86
2022/08/25 11:48:07;;;;;;;6.78;1.75;;;28.40;78.90;;;;;;4862745;29;20640;-87
2022/08/25 11:50:55;;;;;;;5.78;2.42;;;28.30;75.60;;;;;;4871951;29;20052;-87
2022/08/25 11:53:29;;;;;;;5.38;2.17;;;28.40;74.20;;;;;;4861292;29;20063;-86
2022/08/25 11:56:03;;;;;;;5.40;2.13;;;28.50;75.70;;;;;;4861713;29;20052;-86
2022/08/25 11:58:57;;;;;;;5.75;1.95;;;28.50;72.30;;;;;;4877502;29;20044;-89
2022/08/25 12:01:39;;;;;;;6.47;2.03;;;28.50;78.10;;;;;;4871545;29;20068;-87
2022/08/25 12:04:12;;;;;;;7.43;2.20;;;28.60;74.10;;;;;;4875399;29;20506;-88
2022/08/25 12:07:05;;;;;;;7.68;2.03;;;28.70;75.30;;;;;;4862948;29;20044;-89
2022/08/25 12:09:53;;;;;;;;;;;28.70;74.40;;;;;;4874833;29;20194;-89
2022/08/25 12:12:43;;;;;;;6.35;1.90;;;28.70;74.00;;;;;;4871336;29;19924;-86
2022/08/25 12:15:27;;;;;;;5.68;1.77;;;28.70;74.30;;;;;;4863156;29;20061;-85
2022/08/25 12:18:38;;;;;;;6.68;2.05;;;28.70;73.70;;;;;;4868895;29;20060;-84
2022/08/25 12:21:13;;;;;;;6.20;2.20;;;28.80;76.40;;;;;;4877062;29;20053;-86
2022/08/25 12:24:09;;;;;;;9.10;2.42;;;28.80;75.60;;;;;;4874853;29;20450;-87
2022/08/25 12:26:59;;;;;;;6.50;1.80;;;28.80;77.20;;;;;;4862625;29;20052;-86
2022/08/25 12:29:46;;;;;;;6.85;1.80;;;28.90;75.20;;;;;;4881874;29;20048;-89
2022/08/25 12:32:30;;;;;;;3.28;2.20;;;28.90;77.40;;;;;;4875884;29;20053;-86
2022/08/25 12:34:57;;;;;;;6.10;1.90;;;28.80;75.20;;;;;;4877453;29;20064;-87
2022/08/25 12:37:26;;;;;;;5.25;2.20;;;28.80;76.80;;;;;;4878619;29;20049;-85
2022/08/25 12:40:01;;;;;;;8.75;2.63;;;28.60;77.10;;;;;;4861340;29;20597;-87
2022/08/25 12:42:39;;;;;;;8.38;2.50;;;28.50;78.00;;;;;;4858991;29;20049;-89
2022/08/25 12:45:19;;;;;;;8.48;3.00;;;28.50;76.20;;;;;;4877023;29;20053;-89
2022/08/25 12:47:48;;;;;;;7.63;1.92;;;28.80;73.60;;;;;;4857598;29;20044;-90
2022/08/25 12:50:41;;;;;;;6.65;2.10;;;28.90;73.30;;;;;;4868030;29;20059;-89
2022/08/25 12:53:24;;;;;;;5.38;2.33;;;28.90;73.20;;;;;;4861817;29;20048;-91
2022/08/25 12:56:08;;;;;;;8.43;2.17;;;29.00;72.70;;;;;;4858703;29;20486;-89
2022/08/25 12:59:07;;;;;;;7.35;2.38;;;29.10;71.50;;;;;;4857002;29;20061;-89
2022/08/25 13:01:42;;;;;;;6.28;1.95;;;29.10;72.10;;;;;;4866099;29;20053;-87
2022/08/25 13:04:13;;;;;;;6.22;2.45;;;29.00;74.00;;;;;;4884010;29;20057;-86
2022/08/25 13:07:03;;;;;;;6.80;2.13;;;29.00;75.50;;;;;;4874504;29;20048;-88
2022/08/25 13:10:09;;;;;;;6.70;2.15;;;29.00;73.60;;;;;;4854022;29;20167;-88
2022/08/25 13:12:48;;;;;;;9.85;2.25;;;29.00;72.20;;;;;;4864572;29;20064;-89
2022/08/25 13:15:38;;;;;;;12.57;2.53;;;29.20;70.20;;;;;;4862696;29;20093;-89
2022/08/25 13:18:13;;;;;;;7.03;2.42;;;29.20;72.10;;;;;;4852940;29;20055;-89
2022/08/25 13:20:40;;;;;;;8.70;2.08;;;29.10;72.40;;;;;;4865582;29;20064;-92
2022/08/25 13:23:10;;;;;;;7.20;2.17;;;29.10;72.70;;;;;;4874092;29;20056;-91
2022/08/25 13:25:47;;;;;;;9.63;2.10;;;29.20;71.50;;;;;;4862371;29;20143;-92
2022/08/25 13:28:25;;;;;;;8.50;2.28;;;29.30;71.50;;;;;;4866118;29;20135;-88
2022/08/25 13:31:17;;;;;;;6.53;2.00;;;29.20;71.00;;;;;;4859836;29;20044;-87